»·PEaware :: N827WU KRAL-54CL

N827WU :: KRAL-54CL

FLIGHT INFORMATION

Flight Status: Arrived
Operator: Privately registered:
United States
More flights under this callsign
Pilot: Tyler W. (3962)
Aircraft: CESSNA 170
(C170)
More flights by this aircraft type
Origin: KRAL Riverside Mun
United States
Destination: 54CL Lake Riverside Estates
United States
More flights between these airports :: More routes between these airports
Route: VPLLM CA89 F70
File this flight plan on PilotEdge
Remarks:
Altitude:
(Current/Filed)
55,000ft
Speed:
(Current/Filed)
101kts
Departed: 03-Jul-20 09:29 PM
Arrived: 03-Jul-20 10:02 PM
Distance/Time
Traveled:
41nm/0:33
Distance/Time
To Go:
Arrived

Flight Plot

Page will automatically refresh every two minutes.

Flight plan parsing failed; only flown route is shown


Map Options




Map Legend


Flown Route
Filed Route
Departure Airport
Arrival Airport
Navaid (VOR, NDB)
Fix

Horizontal Profiles

Position Reports

Time Latitude Longitude Heading Altitude Ground
Speed
03-Jul-20 21:09 33.951413 -117.446056 104 819ft 0kts
03-Jul-20 21:10 33.951413 -117.446056 104 819ft 0kts
03-Jul-20 21:11 33.951413 -117.446056 104 819ft 0kts
03-Jul-20 21:12 33.951413 -117.446056 104 819ft 0kts
03-Jul-20 21:13 33.951413 -117.446056 104 819ft 0kts
03-Jul-20 21:14 33.951413 -117.446056 104 819ft 0kts
03-Jul-20 21:15 33.951413 -117.446056 104 819ft 0kts
03-Jul-20 21:16 33.951413 -117.446056 104 819ft 0kts
03-Jul-20 21:17 33.951412 -117.446053 104 819ft 0kts
03-Jul-20 21:18 33.951412 -117.446053 104 819ft 0kts
03-Jul-20 21:19 33.951412 -117.446053 104 819ft 0kts
03-Jul-20 21:20 33.951412 -117.446053 104 819ft 0kts
03-Jul-20 21:21 33.951412 -117.446053 104 819ft 0kts
03-Jul-20 21:22 33.951412 -117.446053 104 819ft 0kts
03-Jul-20 21:23 33.951408 -117.446035 103 819ft 2kts
03-Jul-20 21:24 33.951294 -117.442548 101 819ft 16kts
03-Jul-20 21:25 33.950151 -117.436650 103 819ft 15kts
03-Jul-20 21:26 33.949798 -117.434661 304 819ft 0kts
03-Jul-20 21:27 33.949920 -117.434853 314 819ft 0kts
03-Jul-20 21:28 33.953134 -117.445428 285 1255ft 63kts
03-Jul-20 21:29 33.941598 -117.456304 183 2185ft 83kts
03-Jul-20 21:30 33.914049 -117.450076 165 2522ft 116kts
03-Jul-20 21:31 33.883405 -117.436458 162 2724ft 118kts
03-Jul-20 21:32 33.851056 -117.417927 150 1633ft 166kts
03-Jul-20 21:36 33.951414 -117.446061 104 817ft 0kts
03-Jul-20 21:37 33.951414 -117.446061 104 817ft 0kts
03-Jul-20 21:38 33.951414 -117.446061 104 817ft 0kts
03-Jul-20 21:39 33.951460 -117.445805 73 817ft 8kts
03-Jul-20 21:40 33.951330 -117.442706 101 817ft 12kts
03-Jul-20 21:41 33.949910 -117.435502 104 817ft 15kts
03-Jul-20 21:42 33.951064 -117.437207 282 817ft 61kts
03-Jul-20 21:43 33.935080 -117.458275 169 1748ft 154kts
03-Jul-20 21:44 33.888671 -117.444039 166 2527ft 186kts
03-Jul-20 21:45 33.838285 -117.440625 184 3514ft 178kts
03-Jul-20 21:46 33.789393 -117.442859 186 4497ft 178kts
03-Jul-20 21:47 33.745123 -117.417092 149 5458ft 181kts
03-Jul-20 21:48 33.703817 -117.380918 127 6197ft 185kts
03-Jul-20 21:48 33.684568 -117.334998 117 6803ft 188kts
03-Jul-20 21:50 33.650676 -117.273476 127 7443ft 192kts
03-Jul-20 21:51 33.613102 -117.226820 138 7509ft 198kts
03-Jul-20 21:51 33.582482 -117.187198 128 7489ft 190kts
03-Jul-20 21:53 33.553251 -117.121169 115 7248ft 196kts
03-Jul-20 21:53 33.538152 -117.080365 111 5774ft 166kts
03-Jul-20 21:55 33.519009 -117.022693 110 3377ft 159kts
03-Jul-20 21:55 33.511250 -116.984248 106 2821ft 130kts
03-Jul-20 21:56 33.501949 -116.942426 111 2776ft 123kts
03-Jul-20 21:57 33.503715 -116.898419 71 3145ft 141kts
03-Jul-20 21:58 33.521146 -116.856753 65 3924ft 137kts
03-Jul-20 21:59 33.519395 -116.807821 107 4024ft 138kts
03-Jul-20 22:00 33.519249 -116.788630 292 3467ft 79kts
03-Jul-20 22:01 33.522077 -116.798241 201 3412ft 6kts
03-Jul-20 22:02 33.521617 -116.798448 311 3412ft 0kts
03-Jul-20 22:03 33.521617 -116.798448 311 3412ft 0kts
03-Jul-20 22:04 33.521617 -116.798448 311 3412ft 0kts
03-Jul-20 22:05 33.521617 -116.798448 311 3412ft 0kts

Navigation Log

Ident Type
Flight plan parsing failed, navigation log unavailable